sensor_id;sensor_type;location;lat;lon;timestamp;P1;durP1;ratioP1;P2;durP2;ratioP2
56629;SDS011;42502;40.732;-74.254;2023-03-14T00:00:44;3.00;;;0.60;;
56629;SDS011;42502;40.732;-74.254;2023-03-14T00:02:52;3.45;;;0.70;;
56629;SDS011;42502;40.732;-74.254;2023-03-14T00:04:54;4.18;;;0.60;;
56629;SDS011;42502;40.732;-74.254;2023-03-14T00:06:56;3.50;;;0.70;;
56629;SDS011;42502;40.732;-74.254;2023-03-14T00:08:57;5.10;;;0.70;;
56629;SDS011;42502;40.732;-74.254;2023-03-14T00:10:58;6.22;;;0.60;;
56629;SDS011;42502;40.732;-74.254;2023-03-14T00:13:05;6.28;;;0.73;;
56629;SDS011;42502;40.732;-74.254;2023-03-14T00:15:06;2.95;;;0.60;;
56629;SDS011;42502;40.732;-74.254;2023-03-14T00:19:18;11.75;;;0.90;;
56629;SDS011;42502;40.732;-74.254;2023-03-14T00:21:19;4.95;;;0.63;;
56629;SDS011;42502;40.732;-74.254;2023-03-14T00:23:19;8.88;;;1.10;;
56629;SDS011;42502;40.732;-74.254;2023-03-14T00:25:20;5.55;;;0.70;;
56629;SDS011;42502;40.732;-74.254;2023-03-14T00:27:21;7.13;;;1.00;;
56629;SDS011;42502;40.732;-74.254;2023-03-14T00:29:22;6.43;;;0.80;;
56629;SDS011;42502;40.732;-74.254;2023-03-14T00:31:23;3.17;;;0.70;;
56629;SDS011;42502;40.732;-74.254;2023-03-14T00:33:24;6.78;;;0.70;;
56629;SDS011;42502;40.732;-74.254;2023-03-14T00:35:25;4.90;;;0.77;;
56629;SDS011;42502;40.732;-74.254;2023-03-14T00:37:26;6.43;;;0.60;;
56629;SDS011;42502;40.732;-74.254;2023-03-14T00:39:27;7.78;;;0.90;;
56629;SDS011;42502;40.732;-74.254;2023-03-14T00:41:28;2.85;;;0.60;;
56629;SDS011;42502;40.732;-74.254;2023-03-14T00:43:28;9.27;;;0.50;;
56629;SDS011;42502;40.732;-74.254;2023-03-14T00:45:29;4.82;;;0.80;;
56629;SDS011;42502;40.732;-74.254;2023-03-14T00:47:30;1.90;;;0.60;;
56629;SDS011;42502;40.732;-74.254;2023-03-14T00:49:31;4.07;;;0.50;;
56629;SDS011;42502;40.732;-74.254;2023-03-14T00:51:32;7.32;;;0.65;;
56629;SDS011;42502;40.732;-74.254;2023-03-14T00:53:36;3.63;;;0.52;;
56629;SDS011;42502;40.732;-74.254;2023-03-14T00:55:40;3.35;;;0.57;;
56629;SDS011;42502;40.732;-74.254;2023-03-14T00:57:45;2.13;;;0.50;;
56629;SDS011;42502;40.732;-74.254;2023-03-14T00:59:46;2.35;;;0.50;;
56629;SDS011;42502;40.732;-74.254;2023-03-14T01:01:46;4.47;;;0.50;;
56629;SDS011;42502;40.732;-74.254;2023-03-14T01:03:49;3.72;;;0.50;;
56629;SDS011;42502;40.732;-74.254;2023-03-14T01:05:51;3.60;;;0.55;;
56629;SDS011;42502;40.732;-74.254;2023-03-14T01:07:52;6.30;;;0.45;;
56629;SDS011;42502;40.732;-74.254;2023-03-14T01:09:53;4.18;;;0.82;;
56629;SDS011;42502;40.732;-74.254;2023-03-14T01:11:54;4.25;;;0.55;;
56629;SDS011;42502;40.732;-74.254;2023-03-14T01:13:55;5.78;;;0.60;;
56629;SDS011;42502;40.732;-74.254;2023-03-14T01:16:00;3.50;;;0.55;;
56629;SDS011;42502;40.732;-74.254;2023-03-14T01:18:02;3.90;;;0.45;;
56629;SDS011;42502;40.732;-74.254;2023-03-14T01:20:07;3.35;;;0.50;;
56629;SDS011;42502;40.732;-74.254;2023-03-14T01:22:10;2.30;;;0.40;;
56629;SDS011;42502;40.732;-74.254;2023-03-14T01:24:11;7.88;;;0.70;;
56629;SDS011;42502;40.732;-74.254;2023-03-14T01:26:13;2.03;;;0.40;;
56629;SDS011;42502;40.732;-74.254;2023-03-14T01:28:16;8.40;;;0.60;;
56629;SDS011;42502;40.732;-74.254;2023-03-14T01:30:17;8.77;;;0.52;;
56629;SDS011;42502;40.732;-74.254;2023-03-14T01:32:18;7.32;;;0.85;;
56629;SDS011;42502;40.732;-74.254;2023-03-14T01:34:18;3.35;;;0.60;;
56629;SDS011;42502;40.732;-74.254;2023-03-14T01:36:19;2.95;;;0.43;;
56629;SDS011;42502;40.732;-74.254;2023-03-14T01:38:20;3.60;;;0.50;;
56629;SDS011;42502;40.732;-74.254;2023-03-14T01:40:24;5.10;;;0.60;;
56629;SDS011;42502;40.732;-74.254;2023-03-14T01:42:27;6.40;;;0.50;;
56629;SDS011;42502;40.732;-74.254;2023-03-14T01:44:45;6.47;;;0.60;;
56629;SDS011;42502;40.732;-74.254;2023-03-14T01:46:56;5.93;;;0.60;;
56629;SDS011;42502;40.732;-74.254;2023-03-14T01:49:39;6.18;;;0.60;;
56629;SDS011;42502;40.732;-74.254;2023-03-14T01:51:21;5.78;;;0.57;;
56629;SDS011;42502;40.732;-74.254;2023-03-14T01:53:27;6.15;;;0.47;;
56629;SDS011;42502;40.732;-74.254;2023-03-14T01:55:29;3.03;;;0.50;;
56629;SDS011;42502;40.732;-74.254;2023-03-14T01:57:39;4.70;;;0.50;;
56629;SDS011;42502;40.732;-74.254;2023-03-14T01:59:57;1.88;;;0.40;;
56629;SDS011;42502;40.732;-74.254;2023-03-14T02:02:05;1.27;;;0.40;;
56629;SDS011;42502;40.732;-74.254;2023-03-14T02:04:10;2.88;;;0.40;;
56629;SDS011;42502;40.732;-74.254;2023-03-14T02:06:14;5.43;;;0.50;;
56629;SDS011;42502;40.732;-74.254;2023-03-14T02:08:20;2.97;;;0.60;;
56629;SDS011;42502;40.732;-74.254;2023-03-14T02:10:27;7.35;;;0.40;;
56629;SDS011;42502;40.732;-74.254;2023-03-14T02:12:41;1.77;;;0.30;;
56629;SDS011;42502;40.732;-74.254;2023-03-14T02:14:45;5.20;;;0.50;;
56629;SDS011;42502;40.732;-74.254;2023-03-14T02:16:49;5.28;;;0.63;;
56629;SDS011;42502;40.732;-74.254;2023-03-14T02:18:56;4.10;;;0.50;;
56629;SDS011;42502;40.732;-74.254;2023-03-14T02:21:01;3.92;;;0.50;;
56629;SDS011;42502;40.732;-74.254;2023-03-14T02:23:06;4.35;;;0.52;;
56629;SDS011;42502;40.732;-74.254;2023-03-14T02:25:18;3.20;;;0.40;;
56629;SDS011;42502;40.732;-74.254;2023-03-14T02:27:31;2.25;;;0.40;;
56629;SDS011;42502;40.732;-74.254;2023-03-14T02:29:37;2.13;;;0.40;;
56629;SDS011;42502;40.732;-74.254;2023-03-14T02:31:45;7.85;;;0.40;;
56629;SDS011;42502;40.732;-74.254;2023-03-14T02:33:46;5.57;;;0.70;;
56629;SDS011;42502;40.732;-74.254;2023-03-14T02:35:52;3.17;;;0.43;;
56629;SDS011;42502;40.732;-74.254;2023-03-14T02:38:03;5.85;;;0.40;;
56629;SDS011;42502;40.732;-74.254;2023-03-14T02:40:24;2.25;;;0.40;;
56629;SDS011;42502;40.732;-74.254;2023-03-14T02:42:25;3.75;;;0.50;;
56629;SDS011;42502;40.732;-74.254;2023-03-14T02:44:26;3.17;;;0.30;;
56629;SDS011;42502;40.732;-74.254;2023-03-14T02:46:27;6.82;;;0.82;;
56629;SDS011;42502;40.732;-74.254;2023-03-14T02:48:41;1.63;;;0.40;;
56629;SDS011;42502;40.732;-74.254;2023-03-14T02:50:47;4.68;;;0.30;;
56629;SDS011;42502;40.732;-74.254;2023-03-14T02:52:49;2.00;;;0.40;;
56629;SDS011;42502;40.732;-74.254;2023-03-14T02:54:53;1.27;;;0.40;;
56629;SDS011;42502;40.732;-74.254;2023-03-14T02:56:53;4.72;;;0.40;;
56629;SDS011;42502;40.732;-74.254;2023-03-14T02:58:57;4.07;;;0.40;;
56629;SDS011;42502;40.732;-74.254;2023-03-14T03:00:58;0.80;;;0.32;;
56629;SDS011;42502;40.732;-74.254;2023-03-14T03:02:59;0.93;;;0.40;;
56629;SDS011;42502;40.732;-74.254;2023-03-14T03:05:04;1.83;;;0.30;;
56629;SDS011;42502;40.732;-74.254;2023-03-14T03:07:05;2.83;;;0.30;;
56629;SDS011;42502;40.732;-74.254;2023-03-14T03:09:06;1.17;;;0.30;;
56629;SDS011;42502;40.732;-74.254;2023-03-14T03:11:10;2.95;;;0.50;;
56629;SDS011;42502;40.732;-74.254;2023-03-14T03:13:11;2.47;;;0.30;;
56629;SDS011;42502;40.732;-74.254;2023-03-14T03:15:12;1.25;;;0.25;;
56629;SDS011;42502;40.732;-74.254;2023-03-14T03:17:16;2.78;;;0.40;;
56629;SDS011;42502;40.732;-74.254;2023-03-14T03:19:19;1.63;;;0.30;;
56629;SDS011;42502;40.732;-74.254;2023-03-14T03:21:20;0.70;;;0.20;;
56629;SDS011;42502;40.732;-74.254;2023-03-14T03:23:23;1.88;;;0.30;;
56629;SDS011;42502;40.732;-74.254;2023-03-14T03:25:27;2.67;;;0.30;;
56629;SDS011;42502;40.732;-74.254;2023-03-14T03:27:29;0.88;;;0.30;;
56629;SDS011;42502;40.732;-74.254;2023-03-14T03:29:31;2.03;;;0.47;;
56629;SDS011;42502;40.732;-74.254;2023-03-14T03:31:32;0.90;;;0.28;;
56629;SDS011;42502;40.732;-74.254;2023-03-14T03:33:33;1.63;;;0.30;;
56629;SDS011;42502;40.732;-74.254;2023-03-14T03:35:34;3.90;;;0.40;;
56629;SDS011;42502;40.732;-74.254;2023-03-14T03:37:41;0.82;;;0.30;;
56629;SDS011;42502;40.732;-74.254;2023-03-14T03:39:42;0.93;;;0.20;;
56629;SDS011;42502;40.732;-74.254;2023-03-14T03:41:45;3.47;;;0.20;;
56629;SDS011;42502;40.732;-74.254;2023-03-14T03:43:46;1.50;;;0.20;;
56629;SDS011;42502;40.732;-74.254;2023-03-14T03:45:47;0.85;;;0.30;;
56629;SDS011;42502;40.732;-74.254;2023-03-14T03:47:48;1.42;;;0.20;;
56629;SDS011;42502;40.732;-74.254;2023-03-14T03:49:49;1.38;;;0.25;;
56629;SDS011;42502;40.732;-74.254;2023-03-14T03:51:49;0.93;;;0.20;;
56629;SDS011;42502;40.732;-74.254;2023-03-14T03:53:50;0.32;;;0.20;;
56629;SDS011;42502;40.732;-74.254;2023-03-14T03:55:51;1.25;;;0.25;;
56629;SDS011;42502;40.732;-74.254;2023-03-14T03:57:52;0.43;;;0.15;;
56629;SDS011;42502;40.732;-74.254;2023-03-14T03:59:53;1.58;;;0.10;;
56629;SDS011;42502;40.732;-74.254;2023-03-14T04:01:54;2.60;;;0.20;;
56629;SDS011;42502;40.732;-74.254;2023-03-14T04:03:55;0.45;;;0.20;;
56629;SDS011;42502;40.732;-74.254;2023-03-14T04:06:03;1.75;;;0.20;;
56629;SDS011;42502;40.732;-74.254;2023-03-14T04:08:11;0.75;;;0.20;;
56629;SDS011;42502;40.732;-74.254;2023-03-14T04:10:12;0.98;;;0.10;;
56629;SDS011;42502;40.732;-74.254;2023-03-14T04:12:13;0.68;;;0.10;;
56629;SDS011;42502;40.732;-74.254;2023-03-14T04:14:14;3.13;;;0.20;;
56629;SDS011;42502;40.732;-74.254;2023-03-14T04:16:16;1.10;;;0.20;;
56629;SDS011;42502;40.732;-74.254;2023-03-14T04:18:19;0.38;;;0.20;;
56629;SDS011;42502;40.732;-74.254;2023-03-14T04:20:20;1.70;;;0.20;;
56629;SDS011;42502;40.732;-74.254;2023-03-14T04:22:21;1.02;;;0.20;;
56629;SDS011;42502;40.732;-74.254;2023-03-14T04:24:22;0.57;;;0.10;;
56629;SDS011;42502;40.732;-74.254;2023-03-14T04:26:26;0.50;;;0.20;;
56629;SDS011;42502;40.732;-74.254;2023-03-14T04:28:33;0.80;;;0.10;;
56629;SDS011;42502;40.732;-74.254;2023-03-14T04:30:36;0.20;;;0.10;;
56629;SDS011;42502;40.732;-74.254;2023-03-14T04:32:38;0.30;;;0.20;;
56629;SDS011;42502;40.732;-74.254;2023-03-14T04:34:39;0.20;;;0.10;;
56629;SDS011;42502;40.732;-74.254;2023-03-14T04:36:41;0.95;;;0.17;;
56629;SDS011;42502;40.732;-74.254;2023-03-14T04:38:47;0.28;;;0.10;;
56629;SDS011;42502;40.732;-74.254;2023-03-14T04:40:51;1.63;;;0.20;;
56629;SDS011;42502;40.732;-74.254;2023-03-14T04:42:52;0.40;;;0.10;;
56629;SDS011;42502;40.732;-74.254;2023-03-14T04:44:52;1.02;;;0.10;;
56629;SDS011;42502;40.732;-74.254;2023-03-14T04:46:53;0.13;;;0.10;;
56629;SDS011;42502;40.732;-74.254;2023-03-14T04:48:54;0.95;;;0.10;;
56629;SDS011;42502;40.732;-74.254;2023-03-14T04:50:56;0.10;;;0.00;;
56629;SDS011;42502;40.732;-74.254;2023-03-14T04:52:57;0.95;;;0.20;;
56629;SDS011;42502;40.732;-74.254;2023-03-14T04:54:58;0.20;;;0.10;;
56629;SDS011;42502;40.732;-74.254;2023-03-14T04:56:59;0.10;;;0.10;;
56629;SDS011;42502;40.732;-74.254;2023-03-14T04:59:03;0.90;;;0.10;;
56629;SDS011;42502;40.732;-74.254;2023-03-14T05:01:04;1.40;;;0.17;;
56629;SDS011;42502;40.732;-74.254;2023-03-14T05:03:06;0.75;;;0.00;;
56629;SDS011;42502;40.732;-74.254;2023-03-14T05:05:06;0.30;;;0.10;;
56629;SDS011;42502;40.732;-74.254;2023-03-14T05:07:07;1.45;;;0.20;;
56629;SDS011;42502;40.732;-74.254;2023-03-14T05:09:11;1.23;;;0.00;;
56629;SDS011;42502;40.732;-74.254;2023-03-14T05:11:15;3.30;;;0.20;;
56629;SDS011;42502;40.732;-74.254;2023-03-14T05:13:22;0.38;;;0.10;;
56629;SDS011;42502;40.732;-74.254;2023-03-14T05:15:25;0.73;;;0.10;;
56629;SDS011;42502;40.732;-74.254;2023-03-14T05:17:29;1.50;;;0.20;;
56629;SDS011;42502;40.732;-74.254;2023-03-14T05:19:30;0.20;;;0.10;;
56629;SDS011;42502;40.732;-74.254;2023-03-14T05:21:31;0.50;;;0.10;;
56629;SDS011;42502;40.732;-74.254;2023-03-14T05:23:32;0.20;;;0.20;;
56629;SDS011;42502;40.732;-74.254;2023-03-14T05:25:35;2.08;;;0.10;;
56629;SDS011;42502;40.732;-74.254;2023-03-14T05:27:36;0.13;;;0.10;;
56629;SDS011;42502;40.732;-74.254;2023-03-14T05:29:37;0.47;;;0.08;;
56629;SDS011;42502;40.732;-74.254;2023-03-14T05:31:38;1.48;;;0.10;;
56629;SDS011;42502;40.732;-74.254;2023-03-14T05:33:39;0.20;;;0.10;;
56629;SDS011;42502;40.732;-74.254;2023-03-14T05:35:41;0.20;;;0.10;;
56629;SDS011;42502;40.732;-74.254;2023-03-14T05:37:42;0.17;;;0.10;;
56629;SDS011;42502;40.732;-74.254;2023-03-14T05:39:43;0.30;;;0.10;;
56629;SDS011;42502;40.732;-74.254;2023-03-14T05:41:50;0.10;;;0.10;;
56629;SDS011;42502;40.732;-74.254;2023-03-14T05:43:51;0.20;;;0.08;;
56629;SDS011;42502;40.732;-74.254;2023-03-14T05:45:51;0.05;;;0.00;;
56629;SDS011;42502;40.732;-74.254;2023-03-14T05:47:52;1.98;;;0.30;;
56629;SDS011;42502;40.732;-74.254;2023-03-14T05:49:53;1.70;;;0.10;;
56629;SDS011;42502;40.732;-74.254;2023-03-14T05:51:57;0.10;;;0.00;;
56629;SDS011;42502;40.732;-74.254;2023-03-14T05:53:58;0.22;;;0.00;;
56629;SDS011;42502;40.732;-74.254;2023-03-14T05:55:59;0.00;;;0.00;;
56629;SDS011;42502;40.732;-74.254;2023-03-14T05:58:00;0.13;;;0.10;;
56629;SDS011;42502;40.732;-74.254;2023-03-14T06:00:00;0.75;;;0.08;;
56629;SDS011;42502;40.732;-74.254;2023-03-14T06:02:01;0.10;;;0.00;;
56629;SDS011;42502;40.732;-74.254;2023-03-14T06:04:02;0.10;;;0.10;;
56629;SDS011;42502;40.732;-74.254;2023-03-14T06:06:03;0.60;;;0.10;;
56629;SDS011;42502;40.732;-74.254;2023-03-14T06:08:04;0.20;;;0.10;;
56629;SDS011;42502;40.732;-74.254;2023-03-14T06:10:05;0.00;;;0.00;;
56629;SDS011;42502;40.732;-74.254;2023-03-14T06:12:06;0.82;;;0.10;;
56629;SDS011;42502;40.732;-74.254;2023-03-14T06:14:07;0.10;;;0.03;;
56629;SDS011;42502;40.732;-74.254;2023-03-14T06:16:11;0.10;;;0.00;;
56629;SDS011;42502;40.732;-74.254;2023-03-14T06:18:12;0.13;;;0.00;;
56629;SDS011;42502;40.732;-74.254;2023-03-14T06:20:14;0.20;;;0.10;;
56629;SDS011;42502;40.732;-74.254;2023-03-14T06:22:15;0.00;;;0.00;;
56629;SDS011;42502;40.732;-74.254;2023-03-14T06:24:16;0.55;;;0.00;;
56629;SDS011;42502;40.732;-74.254;2023-03-14T06:26:17;0.10;;;0.00;;
56629;SDS011;42502;40.732;-74.254;2023-03-14T06:28:18;0.52;;;0.00;;
56629;SDS011;42502;40.732;-74.254;2023-03-14T06:30:18;0.10;;;0.00;;
56629;SDS011;42502;40.732;-74.254;2023-03-14T06:32:19;0.05;;;0.00;;
56629;SDS011;42502;40.732;-74.254;2023-03-14T06:34:21;0.20;;;0.10;;
56629;SDS011;42502;40.732;-74.254;2023-03-14T06:36:22;0.10;;;0.00;;
56629;SDS011;42502;40.732;-74.254;2023-03-14T06:38:23;0.00;;;0.00;;
56629;SDS011;42502;40.732;-74.254;2023-03-14T06:40:23;0.00;;;0.00;;
56629;SDS011;42502;40.732;-74.254;2023-03-14T06:42:24;0.10;;;0.00;;
56629;SDS011;42502;40.732;-74.254;2023-03-14T06:44:25;0.10;;;0.00;;
56629;SDS011;42502;40.732;-74.254;2023-03-14T06:46:26;0.30;;;0.00;;
56629;SDS011;42502;40.732;-74.254;2023-03-14T06:48:27;0.00;;;0.00;;
56629;SDS011;42502;40.732;-74.254;2023-03-14T06:50:28;0.32;;;0.00;;
56629;SDS011;42502;40.732;-74.254;2023-03-14T06:52:29;0.10;;;0.00;;
56629;SDS011;42502;40.732;-74.254;2023-03-14T06:54:30;0.20;;;0.10;;
56629;SDS011;42502;40.732;-74.254;2023-03-14T06:56:30;0.10;;;0.00;;
56629;SDS011;42502;40.732;-74.254;2023-03-14T06:58:31;0.20;;;0.03;;
56629;SDS011;42502;40.732;-74.254;2023-03-14T07:00:32;0.10;;;0.00;;
56629;SDS011;42502;40.732;-74.254;2023-03-14T07:02:36;0.65;;;0.00;;
56629;SDS011;42502;40.732;-74.254;2023-03-14T07:04:37;0.10;;;0.08;;
56629;SDS011;42502;40.732;-74.254;2023-03-14T07:06:38;0.10;;;0.00;;
56629;SDS011;42502;40.732;-74.254;2023-03-14T07:08:44;0.10;;;0.00;;
56629;SDS011;42502;40.732;-74.254;2023-03-14T07:10:45;0.00;;;0.00;;
56629;SDS011;42502;40.732;-74.254;2023-03-14T07:12:46;0.00;;;0.00;;
56629;SDS011;42502;40.732;-74.254;2023-03-14T07:14:46;0.00;;;0.00;;
56629;SDS011;42502;40.732;-74.254;2023-03-14T07:16:50;0.77;;;0.00;;
56629;SDS011;42502;40.732;-74.254;2023-03-14T07:18:51;0.00;;;0.00;;
56629;SDS011;42502;40.732;-74.254;2023-03-14T07:20:52;0.10;;;0.00;;
56629;SDS011;42502;40.732;-74.254;2023-03-14T07:22:53;0.30;;;0.00;;
56629;SDS011;42502;40.732;-74.254;2023-03-14T07:24:57;0.00;;;0.00;;
56629;SDS011;42502;40.732;-74.254;2023-03-14T07:26:58;0.00;;;0.00;;
56629;SDS011;42502;40.732;-74.254;2023-03-14T07:28:59;0.00;;;0.00;;
56629;SDS011;42502;40.732;-74.254;2023-03-14T07:31:03;1.25;;;0.00;;
56629;SDS011;42502;40.732;-74.254;2023-03-14T07:33:04;0.00;;;0.00;;
56629;SDS011;42502;40.732;-74.254;2023-03-14T07:35:05;0.00;;;0.00;;
56629;SDS011;42502;40.732;-74.254;2023-03-14T07:37:12;0.68;;;0.00;;
56629;SDS011;42502;40.732;-74.254;2023-03-14T07:39:13;0.00;;;0.00;;
56629;SDS011;42502;40.732;-74.254;2023-03-14T07:41:18;0.10;;;0.00;;
56629;SDS011;42502;40.732;-74.254;2023-03-14T07:43:20;0.10;;;0.00;;
56629;SDS011;42502;40.732;-74.254;2023-03-14T07:45:21;0.00;;;0.00;;
56629;SDS011;42502;40.732;-74.254;2023-03-14T07:47:22;0.00;;;0.00;;
56629;SDS011;42502;40.732;-74.254;2023-03-14T07:49:23;0.10;;;0.00;;
56629;SDS011;42502;40.732;-74.254;2023-03-14T07:51:24;0.05;;;0.00;;
56629;SDS011;42502;40.732;-74.254;2023-03-14T07:53:25;0.00;;;0.00;;
56629;SDS011;42502;40.732;-74.254;2023-03-14T07:55:25;0.10;;;0.00;;
56629;SDS011;42502;40.732;-74.254;2023-03-14T07:57:26;0.00;;;0.00;;
56629;SDS011;42502;40.732;-74.254;2023-03-14T07:59:27;0.32;;;0.00;;
56629;SDS011;42502;40.732;-74.254;2023-03-14T08:01:36;0.00;;;0.00;;
56629;SDS011;42502;40.732;-74.254;2023-03-14T08:03:40;0.95;;;0.00;;
56629;SDS011;42502;40.732;-74.254;2023-03-14T08:05:41;0.05;;;0.00;;
56629;SDS011;42502;40.732;-74.254;2023-03-14T08:07:45;0.00;;;0.00;;
56629;SDS011;42502;40.732;-74.254;2023-03-14T08:09:46;0.00;;;0.00;;
56629;SDS011;42502;40.732;-74.254;2023-03-14T08:11:46;0.00;;;0.00;;
56629;SDS011;42502;40.732;-74.254;2023-03-14T08:13:47;0.00;;;0.00;;
56629;SDS011;42502;40.732;-74.254;2023-03-14T08:15:50;0.00;;;0.00;;
56629;SDS011;42502;40.732;-74.254;2023-03-14T08:17:51;0.00;;;0.00;;
56629;SDS011;42502;40.732;-74.254;2023-03-14T08:19:54;0.00;;;0.00;;
56629;SDS011;42502;40.732;-74.254;2023-03-14T08:21:55;0.00;;;0.00;;
56629;SDS011;42502;40.732;-74.254;2023-03-14T08:23:56;0.00;;;0.00;;
56629;SDS011;42502;40.732;-74.254;2023-03-14T08:26:02;1.02;;;0.00;;
56629;SDS011;42502;40.732;-74.254;2023-03-14T08:28:03;0.38;;;0.00;;
56629;SDS011;42502;40.732;-74.254;2023-03-14T08:30:05;0.00;;;0.00;;
56629;SDS011;42502;40.732;-74.254;2023-03-14T08:32:08;0.35;;;0.00;;
56629;SDS011;42502;40.732;-74.254;2023-03-14T08:34:09;0.10;;;0.00;;
56629;SDS011;42502;40.732;-74.254;2023-03-14T08:36:12;0.85;;;0.00;;
56629;SDS011;42502;40.732;-74.254;2023-03-14T08:38:13;0.00;;;0.00;;
56629;SDS011;42502;40.732;-74.254;2023-03-14T08:40:14;0.60;;;0.00;;
56629;SDS011;42502;40.732;-74.254;2023-03-14T08:42:17;0.00;;;0.00;;
56629;SDS011;42502;40.732;-74.254;2023-03-14T08:44:18;0.00;;;0.00;;
56629;SDS011;42502;40.732;-74.254;2023-03-14T08:46:19;0.10;;;0.00;;
56629;SDS011;42502;40.732;-74.254;2023-03-14T08:48:20;0.00;;;0.00;;
56629;SDS011;42502;40.732;-74.254;2023-03-14T08:50:21;0.00;;;0.00;;
56629;SDS011;42502;40.732;-74.254;2023-03-14T08:52:23;0.10;;;0.00;;
56629;SDS011;42502;40.732;-74.254;2023-03-14T08:54:24;0.00;;;0.00;;
56629;SDS011;42502;40.732;-74.254;2023-03-14T08:56:25;0.10;;;0.00;;
56629;SDS011;42502;40.732;-74.254;2023-03-14T08:58:25;0.00;;;0.00;;
56629;SDS011;42502;40.732;-74.254;2023-03-14T09:00:27;0.00;;;0.00;;
56629;SDS011;42502;40.732;-74.254;2023-03-14T09:02:28;0.00;;;0.00;;
56629;SDS011;42502;40.732;-74.254;2023-03-14T09:04:29;0.60;;;0.00;;
56629;SDS011;42502;40.732;-74.254;2023-03-14T09:06:31;0.00;;;0.00;;
56629;SDS011;42502;40.732;-74.254;2023-03-14T09:08:32;0.00;;;0.00;;
56629;SDS011;42502;40.732;-74.254;2023-03-14T09:10:33;0.00;;;0.00;;
56629;SDS011;42502;40.732;-74.254;2023-03-14T09:12:34;0.00;;;0.00;;
56629;SDS011;42502;40.732;-74.254;2023-03-14T09:14:35;0.00;;;0.00;;
56629;SDS011;42502;40.732;-74.254;2023-03-14T09:16:36;0.00;;;0.00;;
56629;SDS011;42502;40.732;-74.254;2023-03-14T09:18:37;0.17;;;0.00;;
56629;SDS011;42502;40.732;-74.254;2023-03-14T09:20:39;0.00;;;0.00;;
56629;SDS011;42502;40.732;-74.254;2023-03-14T09:22:40;0.20;;;0.00;;
56629;SDS011;42502;40.732;-74.254;2023-03-14T09:24:44;0.00;;;0.00;;
56629;SDS011;42502;40.732;-74.254;2023-03-14T09:26:45;0.55;;;0.00;;
56629;SDS011;42502;40.732;-74.254;2023-03-14T09:28:45;0.00;;;0.00;;
56629;SDS011;42502;40.732;-74.254;2023-03-14T09:30:46;0.00;;;0.00;;
56629;SDS011;42502;40.732;-74.254;2023-03-14T09:32:47;0.00;;;0.00;;
56629;SDS011;42502;40.732;-74.254;2023-03-14T09:34:48;0.15;;;0.00;;
56629;SDS011;42502;40.732;-74.254;2023-03-14T09:36:49;0.00;;;0.00;;
56629;SDS011;42502;40.732;-74.254;2023-03-14T09:38:50;0.05;;;0.00;;
56629;SDS011;42502;40.732;-74.254;2023-03-14T09:40:51;0.15;;;0.00;;
56629;SDS011;42502;40.732;-74.254;2023-03-14T09:42:53;0.20;;;0.00;;
56629;SDS011;42502;40.732;-74.254;2023-03-14T09:45:02;0.10;;;0.00;;
56629;SDS011;42502;40.732;-74.254;2023-03-14T09:47:10;0.20;;;0.00;;
56629;SDS011;42502;40.732;-74.254;2023-03-14T09:49:20;0.00;;;0.00;;
56629;SDS011;42502;40.732;-74.254;2023-03-14T09:51:24;0.15;;;0.00;;
56629;SDS011;42502;40.732;-74.254;2023-03-14T09:53:26;0.05;;;0.00;;
56629;SDS011;42502;40.732;-74.254;2023-03-14T09:55:36;0.00;;;0.00;;
56629;SDS011;42502;40.732;-74.254;2023-03-14T09:57:37;0.00;;;0.00;;
56629;SDS011;42502;40.732;-74.254;2023-03-14T09:59:42;0.00;;;0.00;;
56629;SDS011;42502;40.732;-74.254;2023-03-14T10:01:45;0.00;;;0.00;;
56629;SDS011;42502;40.732;-74.254;2023-03-14T10:03:45;0.00;;;0.00;;
56629;SDS011;42502;40.732;-74.254;2023-03-14T10:05:47;0.00;;;0.00;;
56629;SDS011;42502;40.732;-74.254;2023-03-14T10:07:48;0.00;;;0.00;;
56629;SDS011;42502;40.732;-74.254;2023-03-14T10:09:50;0.00;;;0.00;;
56629;SDS011;42502;40.732;-74.254;2023-03-14T10:11:53;0.55;;;0.00;;
56629;SDS011;42502;40.732;-74.254;2023-03-14T10:16:06;0.00;;;0.00;;
56629;SDS011;42502;40.732;-74.254;2023-03-14T10:18:11;0.00;;;0.00;;
56629;SDS011;42502;40.732;-74.254;2023-03-14T10:22:36;0.38;;;0.00;;
56629;SDS011;42502;40.732;-74.254;2023-03-14T10:24:38;0.10;;;0.00;;
56629;SDS011;42502;40.732;-74.254;2023-03-14T10:26:54;1.13;;;0.10;;
56629;SDS011;42502;40.732;-74.254;2023-03-14T10:29:03;0.95;;;0.00;;
56629;SDS011;42502;40.732;-74.254;2023-03-14T10:31:09;1.38;;;0.00;;
56629;SDS011;42502;40.732;-74.254;2023-03-14T10:33:11;1.42;;;0.00;;
56629;SDS011;42502;40.732;-74.254;2023-03-14T10:35:20;0.82;;;0.20;;
56629;SDS011;42502;40.732;-74.254;2023-03-14T10:37:23;0.20;;;0.00;;
56629;SDS011;42502;40.732;-74.254;2023-03-14T10:39:29;0.22;;;0.10;;
56629;SDS011;42502;40.732;-74.254;2023-03-14T10:41:39;0.05;;;0.00;;
56629;SDS011;42502;40.732;-74.254;2023-03-14T10:43:49;5.03;;;0.10;;
56629;SDS011;42502;40.732;-74.254;2023-03-14T10:45:55;2.63;;;0.17;;
56629;SDS011;42502;40.732;-74.254;2023-03-14T10:48:19;4.95;;;0.10;;
56629;SDS011;42502;40.732;-74.254;2023-03-14T10:50:25;0.90;;;0.00;;
56629;SDS011;42502;40.732;-74.254;2023-03-14T10:52:28;1.63;;;0.08;;
56629;SDS011;42502;40.732;-74.254;2023-03-14T10:54:30;5.97;;;0.10;;
56629;SDS011;42502;40.732;-74.254;2023-03-14T10:56:35;1.10;;;0.10;;
56629;SDS011;42502;40.732;-74.254;2023-03-14T10:58:39;1.23;;;0.00;;
56629;SDS011;42502;40.732;-74.254;2023-03-14T11:00:42;5.18;;;0.10;;
56629;SDS011;42502;40.732;-74.254;2023-03-14T11:09:43;3.88;;;0.17;;
56629;SDS011;42502;40.732;-74.254;2023-03-14T11:11:50;5.10;;;0.10;;
56629;SDS011;42502;40.732;-74.254;2023-03-14T11:13:56;2.45;;;0.13;;
56629;SDS011;42502;40.732;-74.254;2023-03-14T11:22:39;2.50;;;0.10;;
56629;SDS011;42502;40.732;-74.254;2023-03-14T11:29:29;0.50;;;0.10;;
56629;SDS011;42502;40.732;-74.254;2023-03-14T11:32:07;8.88;;;0.30;;
56629;SDS011;42502;40.732;-74.254;2023-03-14T11:34:22;2.08;;;0.10;;
56629;SDS011;42502;40.732;-74.254;2023-03-14T11:36:30;2.75;;;0.13;;
56629;SDS011;42502;40.732;-74.254;2023-03-14T11:40:43;2.55;;;0.20;;
56629;SDS011;42502;40.732;-74.254;2023-03-14T11:42:54;6.95;;;0.20;;
56629;SDS011;42502;40.732;-74.254;2023-03-14T11:45:13;3.80;;;0.38;;
56629;SDS011;42502;40.732;-74.254;2023-03-14T11:47:32;2.58;;;0.30;;
56629;SDS011;42502;40.732;-74.254;2023-03-14T11:51:49;5.57;;;0.50;;
56629;SDS011;42502;40.732;-74.254;2023-03-14T11:56:09;6.18;;;0.60;;
56629;SDS011;42502;40.732;-74.254;2023-03-14T11:58:22;5.20;;;0.38;;
56629;SDS011;42502;40.732;-74.254;2023-03-14T12:00:34;1.90;;;0.63;;
56629;SDS011;42502;40.732;-74.254;2023-03-14T12:02:40;13.75;;;0.70;;
56629;SDS011;42502;40.732;-74.254;2023-03-14T12:07:41;5.03;;;0.73;;
56629;SDS011;42502;40.732;-74.254;2023-03-14T12:10:04;4.72;;;0.60;;
56629;SDS011;42502;40.732;-74.254;2023-03-14T12:12:05;8.10;;;0.75;;
56629;SDS011;42502;40.732;-74.254;2023-03-14T12:14:20;4.93;;;0.60;;
56629;SDS011;42502;40.732;-74.254;2023-03-14T12:18:31;4.53;;;0.60;;
56629;SDS011;42502;40.732;-74.254;2023-03-14T12:20:34;4.28;;;0.70;;
56629;SDS011;42502;40.732;-74.254;2023-03-14T12:22:42;6.25;;;0.57;;
56629;SDS011;42502;40.732;-74.254;2023-03-14T12:24:50;5.90;;;0.70;;
56629;SDS011;42502;40.732;-74.254;2023-03-14T12:26:56;3.88;;;0.57;;
56629;SDS011;42502;40.732;-74.254;2023-03-14T12:31:51;4.00;;;0.50;;
56629;SDS011;42502;40.732;-74.254;2023-03-14T12:33:37;4.72;;;0.70;;
56629;SDS011;42502;40.732;-74.254;2023-03-14T12:35:48;6.28;;;0.82;;
56629;SDS011;42502;40.732;-74.254;2023-03-14T12:37:51;7.53;;;0.75;;
56629;SDS011;42502;40.732;-74.254;2023-03-14T12:42:10;8.80;;;0.50;;